HCCXB SAWC-SAWH
Flight info
| Callsign | HCCXB |
|---|---|
| Flight time | 0h 53m |
| Altitude | 35000 |
| Route | DEVIS2H DEVIS UW52 GAL UW42 GRA DCT DABLI DABLI1Q |
| Aircraft | B737/M-SDE2E3FGIJ3J4P2RWXYZ/LB1D1 |
Departure
| Time | 2026-04-17 12:07 |
|---|---|
| Airport | El Calafate - Commander Armando Tola International Airport (SAWC) |
Arrival
| Time | 2026-04-17 13:00 |
|---|---|
| Airport | Ushuaia - Malvinas Argentinas International Airport (SAWH) |
| Time | Latitude | Longitude | Altitude | Speed | Heading |
|---|---|---|---|---|---|
| 2026-04-17 11:42 | -50.28348 | -72.05384 | 649 ft | 0 kts | 178° |
| 2026-04-17 11:57 | -50.28332 | -72.05385 | 650 ft | 2 kts | 179° |
| 2026-04-17 11:57 | -50.28316 | -72.05386 | 649 ft | 2 kts | 178° |
| 2026-04-17 11:57 | -50.28299 | -72.05386 | 652 ft | 2 kts | 178° |
| 2026-04-17 11:58 | -50.28283 | -72.05387 | 650 ft | 2 kts | 178° |
| 2026-04-17 11:58 | -50.28267 | -72.05388 | 649 ft | 2 kts | 198° |
| 2026-04-17 11:58 | -50.28257 | -72.05370 | 649 ft | 2 kts | 260° |
| 2026-04-17 11:58 | -50.28255 | -72.05344 | 651 ft | 2 kts | 264° |
| 2026-04-17 11:59 | -50.28253 | -72.05320 | 652 ft | 1 kts | 264° |
| 2026-04-17 11:59 | -50.28253 | -72.05315 | 652 ft | 0 kts | 264° |
| 2026-04-17 12:01 | -50.28253 | -72.05317 | 649 ft | 1 kts | 264° |
| 2026-04-17 12:01 | -50.28254 | -72.05341 | 649 ft | 4 kts | 270° |
| 2026-04-17 12:01 | -50.28237 | -72.05385 | 651 ft | 6 kts | 326° |
| 2026-04-17 12:02 | -50.28185 | -72.05401 | 649 ft | 9 kts | 353° |
| 2026-04-17 12:02 | -50.28123 | -72.05410 | 649 ft | 10 kts | 355° |
| 2026-04-17 12:02 | -50.28057 | -72.05423 | 651 ft | 9 kts | 339° |
| 2026-04-17 12:02 | -50.28032 | -72.05513 | 648 ft | 11 kts | 267° |
| 2026-04-17 12:03 | -50.28039 | -72.05632 | 650 ft | 11 kts | 264° |
| 2026-04-17 12:03 | -50.28047 | -72.05748 | 649 ft | 11 kts | 264° |
| 2026-04-17 12:03 | -50.28054 | -72.05861 | 652 ft | 10 kts | 266° |
| 2026-04-17 12:03 | -50.28059 | -72.05973 | 651 ft | 11 kts | 265° |
| 2026-04-17 12:04 | -50.28067 | -72.06097 | 651 ft | 12 kts | 264° |
| 2026-04-17 12:04 | -50.28074 | -72.06225 | 652 ft | 12 kts | 264° |
| 2026-04-17 12:04 | -50.28082 | -72.06349 | 654 ft | 11 kts | 265° |
| 2026-04-17 12:04 | -50.28090 | -72.06476 | 654 ft | 12 kts | 264° |
| 2026-04-17 12:05 | -50.28098 | -72.06617 | 656 ft | 14 kts | 264° |
| 2026-04-17 12:05 | -50.28107 | -72.06764 | 655 ft | 13 kts | 265° |
| 2026-04-17 12:05 | -50.28114 | -72.06885 | 658 ft | 10 kts | 264° |
| 2026-04-17 12:05 | -50.28144 | -72.06991 | 660 ft | 11 kts | 232° |
| 2026-04-17 12:06 | -50.28159 | -72.07066 | 657 ft | 5 kts | 297° |
| 2026-04-17 12:06 | -50.28125 | -72.07068 | 656 ft | 6 kts | 50° |
| 2026-04-17 12:06 | -50.28120 | -72.07012 | 657 ft | 6 kts | 85° |
| 2026-04-17 12:06 | -50.28106 | -72.06766 | 655 ft | 59 kts | 85° |
| 2026-04-17 12:07 | -50.28041 | -72.05678 | 648 ft | 139 kts | 85° |
| 2026-04-17 12:07 | -50.27934 | -72.03959 | 1090 ft | 166 kts | 85° |
| 2026-04-17 12:07 | -50.27821 | -72.02133 | 2047 ft | 172 kts | 81° |
| 2026-04-17 12:07 | -50.27715 | -72.00293 | 3063 ft | 169 kts | 83° |
| 2026-04-17 12:08 | -50.27607 | -71.98413 | 3867 ft | 178 kts | 82° |
| 2026-04-17 12:08 | -50.27485 | -71.96364 | 4423 ft | 206 kts | 82° |
| 2026-04-17 12:08 | -50.27338 | -71.93938 | 4748 ft | 242 kts | 81° |
| 2026-04-17 12:08 | -50.27162 | -71.91125 | 5048 ft | 279 kts | 81° |
| 2026-04-17 12:09 | -50.26970 | -71.88011 | 5699 ft | 300 kts | 81° |
| 2026-04-17 12:09 | -50.26770 | -71.84707 | 6646 ft | 309 kts | 80° |
| 2026-04-17 12:09 | -50.26564 | -71.81345 | 7730 ft | 313 kts | 79° |
| 2026-04-17 12:09 | -50.26353 | -71.77939 | 8768 ft | 318 kts | 78° |
| 2026-04-17 12:10 | -50.26137 | -71.74462 | 9754 ft | 324 kts | 78° |
| 2026-04-17 12:10 | -50.25912 | -71.70895 | 10552 ft | 336 kts | 78° |
| 2026-04-17 12:10 | -50.25677 | -71.67212 | 11346 ft | 346 kts | 78° |
| 2026-04-17 12:10 | -50.25537 | -71.63384 | 12138 ft | 364 kts | 90° |
| 2026-04-17 12:11 | -50.26262 | -71.59526 | 13076 ft | 378 kts | 117° |
| 2026-04-17 12:11 | -50.27821 | -71.56271 | 13948 ft | 385 kts | 133° |
| 2026-04-17 12:11 | -50.29669 | -71.53160 | 14684 ft | 396 kts | 135° |
| 2026-04-17 12:12 | -50.33524 | -71.46826 | 16561 ft | 406 kts | 135° |
| 2026-04-17 12:12 | -50.35470 | -71.43587 | 17487 ft | 412 kts | 134° |
| 2026-04-17 12:12 | -50.37444 | -71.40267 | 18269 ft | 419 kts | 134° |
| 2026-04-17 12:12 | -50.39437 | -71.36888 | 19016 ft | 426 kts | 134° |
| 2026-04-17 12:13 | -50.41459 | -71.33444 | 19777 ft | 432 kts | 134° |
| 2026-04-17 12:13 | -50.43506 | -71.29946 | 20547 ft | 438 kts | 134° |
| 2026-04-17 12:13 | -50.45577 | -71.26404 | 21301 ft | 444 kts | 134° |
| 2026-04-17 12:13 | -50.47654 | -71.22852 | 22019 ft | 450 kts | 134° |
| 2026-04-17 12:14 | -50.49784 | -71.19203 | 22757 ft | 456 kts | 134° |
| 2026-04-17 12:14 | -50.51940 | -71.15503 | 23508 ft | 458 kts | 134° |
| 2026-04-17 12:14 | -50.54085 | -71.11815 | 24344 ft | 458 kts | 134° |
| 2026-04-17 12:14 | -50.56245 | -71.08096 | 24872 ft | 465 kts | 133° |
| 2026-04-17 12:15 | -50.58446 | -71.04301 | 25349 ft | 473 kts | 133° |
| 2026-04-17 12:15 | -50.60677 | -71.00449 | 25935 ft | 478 kts | 133° |
| 2026-04-17 12:15 | -50.62920 | -70.96569 | 26569 ft | 481 kts | 133° |
| 2026-04-17 12:15 | -50.65146 | -70.92713 | 27166 ft | 485 kts | 133° |
| 2026-04-17 12:16 | -50.67427 | -70.88753 | 27729 ft | 489 kts | 132° |
| 2026-04-17 12:16 | -50.69725 | -70.84760 | 28332 ft | 494 kts | 132° |
| 2026-04-17 12:16 | -50.72051 | -70.80714 | 28717 ft | 502 kts | 132° |
| 2026-04-17 12:16 | -50.74456 | -70.76675 | 29157 ft | 507 kts | 139° |
| 2026-04-17 12:17 | -50.77325 | -70.73452 | 29665 ft | 505 kts | 154° |
| 2026-04-17 12:17 | -50.80425 | -70.70842 | 30161 ft | 506 kts | 156° |
| 2026-04-17 12:17 | -50.83568 | -70.68311 | 30580 ft | 509 kts | 156° |
| 2026-04-17 12:17 | -50.86688 | -70.65785 | 30941 ft | 513 kts | 156° |
| 2026-04-17 12:18 | -50.89856 | -70.63157 | 31306 ft | 516 kts | 155° |
| 2026-04-17 12:18 | -50.93033 | -70.60459 | 31752 ft | 518 kts | 154° |
| 2026-04-17 12:18 | -50.96190 | -70.57738 | 32287 ft | 516 kts | 154° |
| 2026-04-17 12:18 | -50.99336 | -70.55019 | 32867 ft | 514 kts | 154° |
| 2026-04-17 12:19 | -51.02473 | -70.52311 | 33396 ft | 512 kts | 154° |
| 2026-04-17 12:19 | -51.05501 | -70.49308 | 33761 ft | 516 kts | 141° |
| 2026-04-17 12:19 | -51.07977 | -70.45185 | 34051 ft | 516 kts | 127° |
| 2026-04-17 12:19 | -51.10174 | -70.40672 | 34402 ft | 516 kts | 125° |
| 2026-04-17 12:20 | -51.12301 | -70.36140 | 34598 ft | 521 kts | 125° |
| 2026-04-17 12:20 | -51.16655 | -70.26844 | 34583 ft | 523 kts | 125° |
| 2026-04-17 12:21 | -51.21031 | -70.17685 | 34578 ft | 516 kts | 126° |
| 2026-04-17 12:21 | -51.25417 | -70.08588 | 34577 ft | 518 kts | 126° |
| 2026-04-17 12:22 | -51.29810 | -69.99454 | 34590 ft | 520 kts | 126° |
| 2026-04-17 12:22 | -51.34185 | -69.90314 | 34584 ft | 522 kts | 126° |
| 2026-04-17 12:23 | -51.38593 | -69.81065 | 34587 ft | 524 kts | 126° |
| 2026-04-17 12:23 | -51.43007 | -69.71769 | 34578 ft | 525 kts | 126° |
| 2026-04-17 12:24 | -51.47425 | -69.62432 | 34588 ft | 526 kts | 126° |
| 2026-04-17 12:24 | -51.51806 | -69.53140 | 34580 ft | 526 kts | 126° |
| 2026-04-17 12:25 | -51.56209 | -69.43771 | 34571 ft | 525 kts | 126° |
| 2026-04-17 12:25 | -51.61052 | -69.35055 | 34583 ft | 523 kts | 141° |
| 2026-04-17 12:26 | -51.67088 | -69.28712 | 34578 ft | 515 kts | 159° |
| 2026-04-17 12:26 | -51.73610 | -69.24195 | 34579 ft | 513 kts | 161° |
| 2026-04-17 12:27 | -51.80212 | -69.19748 | 34574 ft | 514 kts | 161° |
| 2026-04-17 12:27 | -51.86788 | -69.15208 | 34573 ft | 514 kts | 160° |
| 2026-04-17 12:28 | -51.93356 | -69.10588 | 34580 ft | 516 kts | 160° |
| 2026-04-17 12:28 | -51.99892 | -69.05958 | 34574 ft | 516 kts | 160° |
| 2026-04-17 12:29 | -52.06474 | -69.01286 | 34568 ft | 517 kts | 160° |
| 2026-04-17 12:29 | -52.13068 | -68.96597 | 34585 ft | 517 kts | 160° |
| 2026-04-17 12:30 | -52.19669 | -68.91889 | 34568 ft | 518 kts | 160° |
| 2026-04-17 12:30 | -52.26266 | -68.87166 | 34566 ft | 518 kts | 160° |
| 2026-04-17 12:31 | -52.32826 | -68.82455 | 34567 ft | 518 kts | 160° |
| 2026-04-17 12:31 | -52.39425 | -68.77700 | 34568 ft | 518 kts | 159° |
| 2026-04-17 12:32 | -52.46009 | -68.72942 | 34561 ft | 517 kts | 159° |
| 2026-04-17 12:32 | -52.52577 | -68.68178 | 34564 ft | 515 kts | 159° |
| 2026-04-17 12:33 | -52.59085 | -68.63443 | 34570 ft | 515 kts | 159° |
| 2026-04-17 12:33 | -52.65629 | -68.58667 | 34555 ft | 514 kts | 159° |
| 2026-04-17 12:34 | -52.72165 | -68.53882 | 34564 ft | 514 kts | 159° |
| 2026-04-17 12:34 | -52.78699 | -68.49082 | 34586 ft | 514 kts | 159° |
| 2026-04-17 12:35 | -52.85199 | -68.44294 | 34570 ft | 516 kts | 159° |
| 2026-04-17 12:35 | -52.91757 | -68.39451 | 34561 ft | 516 kts | 159° |
| 2026-04-17 12:37 | -53.17973 | -68.19927 | 34549 ft | 517 kts | 159° |
| 2026-04-17 12:38 | -53.24519 | -68.15011 | 34561 ft | 516 kts | 158° |
| 2026-04-17 12:38 | -53.31075 | -68.10072 | 34549 ft | 516 kts | 158° |
| 2026-04-17 12:39 | -53.37625 | -68.05120 | 34537 ft | 517 kts | 158° |
| 2026-04-17 12:39 | -53.44176 | -68.00149 | 34529 ft | 517 kts | 158° |
| 2026-04-17 12:40 | -53.50681 | -67.95198 | 34358 ft | 518 kts | 158° |
| 2026-04-17 12:40 | -53.53980 | -67.92682 | 33663 ft | 522 kts | 158° |
| 2026-04-17 12:40 | -53.57284 | -67.90155 | 32833 ft | 522 kts | 158° |
| 2026-04-17 12:40 | -53.60588 | -67.87624 | 31979 ft | 522 kts | 158° |
| 2026-04-17 12:41 | -53.63892 | -67.85087 | 31120 ft | 522 kts | 159° |
| 2026-04-17 12:41 | -53.67187 | -67.82554 | 30436 ft | 518 kts | 159° |
| 2026-04-17 12:41 | -53.70443 | -67.80046 | 29827 ft | 511 kts | 159° |
| 2026-04-17 12:41 | -53.73657 | -67.77570 | 29146 ft | 505 kts | 159° |
| 2026-04-17 12:42 | -53.76869 | -67.75516 | 28440 ft | 494 kts | 168° |
| 2026-04-17 12:42 | -53.80161 | -67.74221 | 27811 ft | 479 kts | 177° |
| 2026-04-17 12:42 | -53.83437 | -67.73736 | 27213 ft | 466 kts | 183° |
| 2026-04-17 12:42 | -53.86645 | -67.73440 | 26582 ft | 459 kts | 183° |
| 2026-04-17 12:43 | -53.89812 | -67.73166 | 25989 ft | 452 kts | 183° |
| 2026-04-17 12:43 | -53.92932 | -67.72887 | 25394 ft | 446 kts | 183° |
| 2026-04-17 12:43 | -53.96014 | -67.72593 | 24796 ft | 441 kts | 183° |
| 2026-04-17 12:43 | -53.99053 | -67.72287 | 24205 ft | 435 kts | 182° |
| 2026-04-17 12:44 | -54.02058 | -67.71974 | 23623 ft | 430 kts | 182° |
| 2026-04-17 12:44 | -54.04987 | -67.71663 | 23051 ft | 425 kts | 182° |
| 2026-04-17 12:44 | -54.07925 | -67.71348 | 22363 ft | 420 kts | 182° |
| 2026-04-17 12:44 | -54.10818 | -67.71036 | 21775 ft | 414 kts | 182° |
| 2026-04-17 12:45 | -54.13674 | -67.70728 | 21188 ft | 408 kts | 182° |
| 2026-04-17 12:45 | -54.16487 | -67.70424 | 20619 ft | 402 kts | 182° |
| 2026-04-17 12:45 | -54.19262 | -67.70126 | 20041 ft | 397 kts | 182° |
| 2026-04-17 12:45 | -54.22002 | -67.69831 | 19485 ft | 392 kts | 182° |
| 2026-04-17 12:46 | -54.24708 | -67.69543 | 18950 ft | 387 kts | 181° |
| 2026-04-17 12:46 | -54.27383 | -67.69256 | 18382 ft | 383 kts | 181° |
| 2026-04-17 12:46 | -54.29990 | -67.68973 | 17828 ft | 379 kts | 181° |
| 2026-04-17 12:46 | -54.32602 | -67.68689 | 17212 ft | 374 kts | 181° |
| 2026-04-17 12:47 | -54.35182 | -67.68408 | 16656 ft | 368 kts | 181° |
| 2026-04-17 12:47 | -54.37721 | -67.68132 | 16108 ft | 363 kts | 181° |
| 2026-04-17 12:47 | -54.40222 | -67.67861 | 15557 ft | 358 kts | 181° |
| 2026-04-17 12:47 | -54.42688 | -67.67594 | 15027 ft | 354 kts | 181° |
| 2026-04-17 12:48 | -54.45129 | -67.67328 | 14485 ft | 350 kts | 181° |
| 2026-04-17 12:48 | -54.47548 | -67.67065 | 13949 ft | 346 kts | 181° |
| 2026-04-17 12:48 | -54.49906 | -67.66807 | 13430 ft | 343 kts | 181° |
| 2026-04-17 12:48 | -54.52275 | -67.66544 | 12942 ft | 339 kts | 181° |
| 2026-04-17 12:49 | -54.54627 | -67.66282 | 12445 ft | 338 kts | 181° |
| 2026-04-17 12:49 | -54.56973 | -67.66021 | 11993 ft | 337 kts | 181° |
| 2026-04-17 12:49 | -54.59302 | -67.65761 | 11542 ft | 335 kts | 181° |
| 2026-04-17 12:49 | -54.61623 | -67.65501 | 11074 ft | 333 kts | 181° |
| 2026-04-17 12:50 | -54.63928 | -67.65243 | 10617 ft | 331 kts | 181° |
| 2026-04-17 12:50 | -54.66208 | -67.64986 | 10167 ft | 326 kts | 181° |
| 2026-04-17 12:50 | -54.68421 | -67.64736 | 9730 ft | 320 kts | 181° |
| 2026-04-17 12:50 | -54.70650 | -67.64483 | 9390 ft | 312 kts | 181° |
| 2026-04-17 12:51 | -54.72755 | -67.64242 | 9121 ft | 303 kts | 181° |
| 2026-04-17 12:51 | -54.74833 | -67.64014 | 8875 ft | 296 kts | 181° |
| 2026-04-17 12:51 | -54.76870 | -67.63789 | 8655 ft | 288 kts | 181° |
| 2026-04-17 12:51 | -54.78795 | -67.63813 | 8295 ft | 271 kts | 200° |
| 2026-04-17 12:52 | -54.80417 | -67.65169 | 7943 ft | 251 kts | 220° |
| 2026-04-17 12:52 | -54.81577 | -67.67259 | 7580 ft | 234 kts | 246° |
| 2026-04-17 12:52 | -54.81924 | -67.69875 | 7312 ft | 217 kts | 267° |
| 2026-04-17 12:52 | -54.82024 | -67.72463 | 6988 ft | 214 kts | 267° |
| 2026-04-17 12:53 | -54.82122 | -67.75000 | 6686 ft | 213 kts | 267° |
| 2026-04-17 12:53 | -54.82222 | -67.77513 | 6455 ft | 206 kts | 267° |
| 2026-04-17 12:53 | -54.82325 | -67.79970 | 6147 ft | 202 kts | 267° |
| 2026-04-17 12:53 | -54.82423 | -67.82377 | 5840 ft | 197 kts | 268° |
| 2026-04-17 12:54 | -54.82520 | -67.84706 | 5602 ft | 191 kts | 266° |
| 2026-04-17 12:54 | -54.82680 | -67.86950 | 5318 ft | 182 kts | 264° |
| 2026-04-17 12:54 | -54.82810 | -67.89017 | 5261 ft | 170 kts | 266° |
| 2026-04-17 12:54 | -54.82902 | -67.91028 | 4992 ft | 162 kts | 268° |
| 2026-04-17 12:55 | -54.82978 | -67.92959 | 4802 ft | 165 kts | 268° |
| 2026-04-17 12:55 | -54.83052 | -67.94926 | 4526 ft | 162 kts | 268° |
| 2026-04-17 12:55 | -54.83123 | -67.96878 | 4251 ft | 157 kts | 269° |
| 2026-04-17 12:55 | -54.83187 | -67.98664 | 4007 ft | 144 kts | 269° |
| 2026-04-17 12:56 | -54.83248 | -68.00375 | 3775 ft | 141 kts | 269° |
| 2026-04-17 12:56 | -54.83309 | -68.02096 | 3541 ft | 144 kts | 269° |
| 2026-04-17 12:56 | -54.83370 | -68.03812 | 3294 ft | 142 kts | 269° |
| 2026-04-17 12:56 | -54.83433 | -68.05530 | 3053 ft | 145 kts | 269° |
| 2026-04-17 12:57 | -54.83496 | -68.07256 | 2826 ft | 141 kts | 270° |
| 2026-04-17 12:57 | -54.83555 | -68.08922 | 2592 ft | 138 kts | 270° |
| 2026-04-17 12:57 | -54.83616 | -68.10582 | 2353 ft | 139 kts | 269° |
| 2026-04-17 12:57 | -54.83677 | -68.12249 | 2107 ft | 143 kts | 266° |
| 2026-04-17 12:58 | -54.83742 | -68.13958 | 1865 ft | 142 kts | 266° |
| 2026-04-17 12:58 | -54.83801 | -68.15590 | 1668 ft | 132 kts | 266° |
| 2026-04-17 12:58 | -54.83858 | -68.17112 | 1456 ft | 122 kts | 266° |
| 2026-04-17 12:58 | -54.83913 | -68.18563 | 1287 ft | 121 kts | 266° |
| 2026-04-17 12:59 | -54.83971 | -68.20059 | 1093 ft | 125 kts | 268° |
| 2026-04-17 12:59 | -54.84023 | -68.21554 | 845 ft | 125 kts | 269° |
| 2026-04-17 12:59 | -54.84078 | -68.23080 | 671 ft | 131 kts | 266° |
| 2026-04-17 12:59 | -54.84142 | -68.24677 | 501 ft | 136 kts | 268° |
| 2026-04-17 13:00 | -54.84204 | -68.26292 | 273 ft | 134 kts | 267° |
| 2026-04-17 13:00 | -54.84264 | -68.27869 | 66 ft | 128 kts | 264° |
| 2026-04-17 13:00 | -54.84318 | -68.29218 | 61 ft | 91 kts | 265° |
| 2026-04-17 13:00 | -54.84350 | -68.30060 | 59 ft | 49 kts | 266° |
| 2026-04-17 13:01 | -54.84370 | -68.30546 | 59 ft | 31 kts | 266° |
| 2026-04-17 13:01 | -54.84379 | -68.30807 | 49 ft | 15 kts | 267° |
| 2026-04-17 13:01 | -54.84357 | -68.30943 | 55 ft | 12 kts | 329° |
| 2026-04-17 13:01 | -54.84280 | -68.30968 | 60 ft | 11 kts | 355° |
| 2026-04-17 13:02 | -54.84204 | -68.30974 | 65 ft | 11 kts | 356° |
| 2026-04-17 13:02 | -54.84131 | -68.30986 | 75 ft | 10 kts | 355° |
| 2026-04-17 13:02 | -54.84091 | -68.31036 | 72 ft | 6 kts | 287° |
| 2026-04-17 13:02 | -54.84086 | -68.31087 | 76 ft | 4 kts | 309° |
| 2026-04-17 13:03 | -54.84055 | -68.31101 | 72 ft | 5 kts | 353° |
| 2026-04-17 13:03 | -54.84027 | -68.31105 | 71 ft | 4 kts | 356° |
| 2026-04-17 13:03 | -54.84010 | -68.31107 | 73 ft | 0 kts | 356° |